createdAt,value
2023-09-04T00:01:16.968Z,15.98
2023-09-04T00:04:18.911Z,15.76
2023-09-04T00:07:20.800Z,15.76
2023-09-04T00:10:22.822Z,15.63
2023-09-04T00:13:24.560Z,15.57
2023-09-04T00:16:26.518Z,15.63
2023-09-04T00:19:28.809Z,15.67
2023-09-04T00:22:32.082Z,15.61
2023-09-04T00:25:33.857Z,15.59
2023-09-04T00:28:35.637Z,15.50
2023-09-04T00:31:37.378Z,15.54
2023-09-04T00:34:39.159Z,15.43
2023-09-04T00:37:42.526Z,15.27
2023-09-04T00:40:44.376Z,15.31
2023-09-04T00:43:46.125Z,15.29
2023-09-04T00:46:48.004Z,15.19
2023-09-04T00:49:51.686Z,15.12
2023-09-04T00:52:58.854Z,14.92
2023-09-04T00:56:02.662Z,15.05
2023-09-04T00:59:04.586Z,14.99
2023-09-04T01:02:06.451Z,15.00
2023-09-04T01:05:08.858Z,15.02
2023-09-04T01:08:10.989Z,14.94
2023-09-04T01:11:22.506Z,14.94
2023-09-04T01:14:24.955Z,14.86
2023-09-04T01:17:26.889Z,14.86
2023-09-04T01:20:30.307Z,14.66
2023-09-04T01:23:33.314Z,14.64
2023-09-04T01:26:39.670Z,14.36
2023-09-04T01:29:52.139Z,14.57
2023-09-04T01:32:59.964Z,14.67
2023-09-04T01:36:05.824Z,14.64
2023-09-04T01:39:07.797Z,14.71
2023-09-04T01:42:09.787Z,14.80
2023-09-04T01:45:11.574Z,14.89
2023-09-04T01:48:13.344Z,14.94
2023-09-04T01:51:15.112Z,14.84
2023-09-04T01:54:16.954Z,14.87
2023-09-04T01:57:18.764Z,14.82
2023-09-04T02:00:20.686Z,14.68
2023-09-04T02:03:23.357Z,14.66
2023-09-04T02:06:28.139Z,14.48
2023-09-04T02:09:29.906Z,14.32
2023-09-04T02:12:31.717Z,14.40
2023-09-04T02:15:33.656Z,14.46
2023-09-04T02:18:35.419Z,14.48
2023-09-04T02:21:37.202Z,14.35
2023-09-04T02:24:39.012Z,14.36
2023-09-04T02:27:40.728Z,14.30
2023-09-04T02:30:42.430Z,14.32
2023-09-04T02:33:45.709Z,14.30
2023-09-04T02:36:47.564Z,14.33
2023-09-04T02:39:49.322Z,14.30
2023-09-04T02:42:51.032Z,14.38
2023-09-04T02:45:53.374Z,14.30
2023-09-04T02:48:55.222Z,14.24
2023-09-04T02:51:57.037Z,14.30
2023-09-04T02:54:59.068Z,14.31
2023-09-04T02:58:02.138Z,14.32
2023-09-04T03:01:04.344Z,14.29
2023-09-04T03:04:06.416Z,14.29
2023-09-04T03:07:08.210Z,14.30
2023-09-04T03:10:10.157Z,14.28
2023-09-04T03:13:12.378Z,14.14
2023-09-04T03:16:14.147Z,14.07
2023-09-04T03:19:15.948Z,14.06
2023-09-04T03:22:17.826Z,13.98
2023-09-04T03:25:19.590Z,14.02
2023-09-04T03:28:22.091Z,13.78
2023-09-04T03:31:24.155Z,13.69
2023-09-04T03:34:26.026Z,13.75
2023-09-04T03:37:27.728Z,13.80
2023-09-04T03:40:30.595Z,13.91
2023-09-04T03:43:34.354Z,14.00
2023-09-04T03:46:36.169Z,13.98
2023-09-04T03:49:38.002Z,13.94
2023-09-04T03:52:40.706Z,13.91
2023-09-04T03:55:42.471Z,13.86
2023-09-04T03:58:44.294Z,13.90
2023-09-04T04:01:46.071Z,13.92
2023-09-04T04:04:47.940Z,13.90
2023-09-04T04:07:49.841Z,13.88
2023-09-04T04:10:51.590Z,13.91
2023-09-04T04:13:53.411Z,13.84
2023-09-04T04:16:55.201Z,13.89
2023-09-04T04:19:57.925Z,13.82
2023-09-04T04:22:59.670Z,13.84
2023-09-04T04:26:01.453Z,13.89
2023-09-04T04:29:03.195Z,13.91
2023-09-04T04:32:07.882Z,13.85
2023-09-04T04:35:10.205Z,13.84
2023-09-04T04:38:11.994Z,13.82
2023-09-04T04:41:14.564Z,13.89
2023-09-04T04:44:16.427Z,13.89
2023-09-04T04:47:18.302Z,13.97
2023-09-04T04:50:20.128Z,14.06
2023-09-04T04:53:22.100Z,17.13
2023-09-04T04:56:23.830Z,17.24
2023-09-04T04:59:25.775Z,17.40
2023-09-04T05:05:29.427Z,22.17
2023-09-04T05:08:32.148Z,21.64
2023-09-04T05:11:36.282Z,18.44
2023-09-04T05:14:38.537Z,17.53
2023-09-04T05:17:40.495Z,17.37
2023-09-04T05:20:42.679Z,17.21
2023-09-04T05:23:45.242Z,17.39
2023-09-04T05:26:47.871Z,17.44
2023-09-04T05:29:50.151Z,17.61
2023-09-04T05:32:55.252Z,17.40
2023-09-04T05:35:57.900Z,17.32
2023-09-04T05:38:59.856Z,17.49
2023-09-04T05:42:01.800Z,17.58
2023-09-04T05:45:04.421Z,17.62
2023-09-04T05:48:08.600Z,17.71
2023-09-04T05:51:10.451Z,17.80
2023-09-04T05:54:12.221Z,17.71
2023-09-04T05:57:14.001Z,17.94
2023-09-04T06:00:15.897Z,17.98
2023-09-04T06:03:17.731Z,18.17
2023-09-04T06:06:19.644Z,18.27
2023-09-04T06:09:22.248Z,18.47
2023-09-04T06:12:24.006Z,18.65
2023-09-04T06:15:25.843Z,18.65
2023-09-04T06:18:30.991Z,18.60
2023-09-04T06:21:32.887Z,18.79
2023-09-04T06:24:34.763Z,19.14
2023-09-04T06:27:36.525Z,19.18
2023-09-04T06:30:39.162Z,19.37
2023-09-04T06:33:41.031Z,19.40
2023-09-04T06:36:42.746Z,19.49
2023-09-04T06:39:44.552Z,19.82
2023-09-04T06:42:46.545Z,19.44
2023-09-04T06:45:48.337Z,19.91
2023-09-04T06:48:50.252Z,20.19
2023-09-04T06:51:52.049Z,20.35
2023-09-04T06:54:53.892Z,20.39
2023-09-04T06:57:55.793Z,20.67
2023-09-04T07:00:57.655Z,20.87
2023-09-04T07:04:00.024Z,21.04
2023-09-04T07:07:01.846Z,21.22
2023-09-04T07:10:07.232Z,21.40
2023-09-04T07:13:09.393Z,21.70
2023-09-04T07:16:16.935Z,21.82
2023-09-04T07:19:30.476Z,21.88
2023-09-04T07:22:32.242Z,22.00
2023-09-04T07:25:34.220Z,22.13
2023-09-04T07:28:36.112Z,22.32
2023-09-04T07:31:38.168Z,22.24
2023-09-04T07:34:40.009Z,22.26
2023-09-04T07:37:41.798Z,22.44
2023-09-04T07:40:43.576Z,22.57
2023-09-04T07:43:45.305Z,22.66
2023-09-04T07:46:47.131Z,22.88
2023-09-04T07:49:49.637Z,23.15
2023-09-04T07:52:51.454Z,23.05
2023-09-04T07:55:54.989Z,23.21
2023-09-04T07:58:57.421Z,23.43
2023-09-04T08:02:00.082Z,23.58
2023-09-04T08:05:01.978Z,23.77
2023-09-04T08:08:09.134Z,23.77
2023-09-04T08:11:10.996Z,23.76
2023-09-04T08:14:12.889Z,24.05
2023-09-04T08:17:14.639Z,24.21
2023-09-04T08:20:16.501Z,24.47
2023-09-04T08:23:18.306Z,24.62
2023-09-04T08:26:20.162Z,24.74
2023-09-04T08:29:22.055Z,24.99
2023-09-04T08:32:23.850Z,24.88
2023-09-04T08:35:30.974Z,24.88
2023-09-04T08:38:32.771Z,24.61
2023-09-04T08:41:35.112Z,25.10
2023-09-04T08:44:38.031Z,25.17
2023-09-04T08:47:44.004Z,24.57
2023-09-04T08:50:47.389Z,24.48
2023-09-04T08:53:51.218Z,24.54
2023-09-04T08:56:52.986Z,24.76
2023-09-04T08:59:54.733Z,24.56
2023-09-04T09:03:01.852Z,24.93
2023-09-04T09:06:04.718Z,24.56
2023-09-04T09:09:07.515Z,25.19
2023-09-04T09:12:09.367Z,25.22
2023-09-04T09:15:11.891Z,25.16
2023-09-04T09:18:38.821Z,25.02
2023-09-04T09:21:41.058Z,25.19
2023-09-04T09:24:49.317Z,25.04
2023-09-04T09:27:51.217Z,25.36
2023-09-04T09:30:53.042Z,25.65
2023-09-04T09:33:55.139Z,25.69
2023-09-04T09:36:59.230Z,25.47
2023-09-04T09:40:00.978Z,25.34
2023-09-04T09:43:04.103Z,25.14
2023-09-04T09:46:09.761Z,25.52
2023-09-04T09:49:12.319Z,24.55
2023-09-04T09:52:14.942Z,24.92
2023-09-04T09:55:29.951Z,25.01
2023-09-04T09:58:31.947Z,24.41
2023-09-04T10:01:34.018Z,25.06
2023-09-04T10:04:37.062Z,24.73
2023-09-04T10:07:39.698Z,24.53
2023-09-04T10:10:42.527Z,24.90
2023-09-04T10:14:09.976Z,24.88
2023-09-04T10:17:24.642Z,25.29
2023-09-04T10:20:27.639Z,24.58
2023-09-04T10:23:33.942Z,24.52
2023-09-04T10:27:06.028Z,25.15
2023-09-04T10:30:08.487Z,25.41
2023-09-04T10:33:10.900Z,25.01
2023-09-04T10:36:13.656Z,24.32
2023-09-04T10:39:15.645Z,24.69
2023-09-04T10:42:17.566Z,24.49
2023-09-04T10:45:20.121Z,24.85
2023-09-04T10:48:47.127Z,25.08
2023-09-04T10:51:49.179Z,24.92
2023-09-04T10:55:11.945Z,24.48
2023-09-04T10:58:14.005Z,24.47
2023-09-04T11:01:38.448Z,24.47
2023-09-04T11:04:40.380Z,24.91
2023-09-04T11:07:42.501Z,25.24
2023-09-04T11:10:44.318Z,25.34
2023-09-04T11:13:47.076Z,25.08
2023-09-04T11:16:51.301Z,24.92
2023-09-04T11:19:54.017Z,25.02
2023-09-04T11:22:58.019Z,25.04
2023-09-04T11:25:59.772Z,25.02
2023-09-04T11:29:03.517Z,24.98
2023-09-04T11:32:08.650Z,25.15
2023-09-04T11:35:15.953Z,24.60
2023-09-04T11:38:25.184Z,24.26
2023-09-04T11:41:27.220Z,24.83
2023-09-04T11:44:32.252Z,24.34
2023-09-04T11:47:34.882Z,24.14
2023-09-04T11:50:37.050Z,24.22
2023-09-04T11:53:38.936Z,24.20
2023-09-04T11:56:42.076Z,24.74
2023-09-04T11:59:43.982Z,24.57
2023-09-04T12:02:45.781Z,24.07
2023-09-04T12:05:52.390Z,24.66
2023-09-04T12:08:54.357Z,24.71
2023-09-04T12:11:56.553Z,25.03
2023-09-04T12:14:58.404Z,25.07
2023-09-04T12:18:05.015Z,25.16
2023-09-04T12:21:10.287Z,24.97
2023-09-04T12:24:16.129Z,24.80
2023-09-04T12:27:18.088Z,24.86
2023-09-04T12:30:24.043Z,24.91
2023-09-04T12:33:29.453Z,25.11
2023-09-04T12:36:33.241Z,25.33
2023-09-04T12:39:34.934Z,25.31
2023-09-04T12:42:37.493Z,25.44
2023-09-04T12:45:39.317Z,25.12
2023-09-04T12:48:44.754Z,25.15
2023-09-04T12:51:46.716Z,24.80
2023-09-04T12:54:49.859Z,24.85
2023-09-04T12:58:00.709Z,25.08
2023-09-04T13:01:04.021Z,25.28
2023-09-04T13:04:07.493Z,25.31
2023-09-04T13:07:09.317Z,25.50
2023-09-04T13:10:11.226Z,25.20
2023-09-04T13:13:13.273Z,25.08
2023-09-04T13:16:15.066Z,25.12
2023-09-04T13:19:17.861Z,25.05
2023-09-04T13:22:19.760Z,25.16
2023-09-04T13:25:21.547Z,25.20
2023-09-04T13:28:24.727Z,25.35
2023-09-04T13:31:26.796Z,25.56
2023-09-04T13:34:29.381Z,25.26
2023-09-04T13:37:32.303Z,25.66
2023-09-04T13:40:37.451Z,25.61
2023-09-04T13:43:39.340Z,25.72
2023-09-04T13:46:41.214Z,25.72
2023-09-04T13:49:45.153Z,25.48
2023-09-04T13:52:47.115Z,25.63
2023-09-04T13:55:49.530Z,25.52
2023-09-04T13:58:52.701Z,25.33
2023-09-04T14:01:54.510Z,25.18
2023-09-04T14:04:56.325Z,25.13
2023-09-04T14:07:58.234Z,25.34
2023-09-04T14:10:59.991Z,25.55
2023-09-04T14:14:01.923Z,25.41
2023-09-04T14:17:06.338Z,25.43
2023-09-04T14:20:08.712Z,25.40
2023-09-04T14:23:10.730Z,25.35
2023-09-04T14:26:12.591Z,25.25
2023-09-04T14:29:15.116Z,25.27
2023-09-04T14:32:17.318Z,25.34
2023-09-04T14:35:19.131Z,25.01
2023-09-04T14:38:20.883Z,25.14
2023-09-04T14:41:36.936Z,25.21
2023-09-04T14:44:38.822Z,25.21
2023-09-04T14:47:40.639Z,24.82
2023-09-04T14:50:43.374Z,24.84
2023-09-04T14:53:45.263Z,24.87
2023-09-04T14:56:47.053Z,24.81
2023-09-04T15:55:45.799Z,23.80
2023-09-04T16:02:39.750Z,23.69
2023-09-04T16:05:41.984Z,23.58
2023-09-04T16:08:44.130Z,23.47
2023-09-04T16:11:45.909Z,23.38
2023-09-04T16:14:48.262Z,23.31
2023-09-04T16:17:50.710Z,23.26
2023-09-04T16:20:52.846Z,23.22
2023-09-04T16:23:56.061Z,23.17
2023-09-04T16:26:57.742Z,23.11
2023-09-04T16:29:59.619Z,23.06
2023-09-04T16:33:01.498Z,22.90
2023-09-04T16:36:03.686Z,22.87
2023-09-04T16:39:05.690Z,22.74
2023-09-04T16:42:07.679Z,22.65
2023-09-04T16:45:10.065Z,22.52
2023-09-04T16:48:11.850Z,22.47
2023-09-04T16:51:14.392Z,22.35
2023-09-04T16:54:16.262Z,22.25
2023-09-04T16:57:22.136Z,22.24
2023-09-04T17:00:25.161Z,22.19
2023-09-04T17:03:28.073Z,22.14
2023-09-04T17:06:43.184Z,22.05
2023-09-04T17:09:46.837Z,21.98
2023-09-04T17:12:48.604Z,21.91
2023-09-04T17:15:51.076Z,21.84
2023-09-04T17:18:52.996Z,21.78
2023-09-04T17:21:55.006Z,21.70
2023-09-04T17:24:57.342Z,21.61
2023-09-04T17:27:59.790Z,21.50
2023-09-04T17:31:09.843Z,21.30
2023-09-04T17:34:12.540Z,21.20
2023-09-04T17:37:15.171Z,21.03
2023-09-04T17:40:18.222Z,20.88
2023-09-04T17:43:34.433Z,20.81
2023-09-04T17:46:44.965Z,20.70
2023-09-04T17:49:47.023Z,20.69
2023-09-04T17:52:48.755Z,20.60
2023-09-04T17:55:50.755Z,20.52
2023-09-04T17:58:52.787Z,20.44
2023-09-04T18:01:55.507Z,20.37
2023-09-04T18:04:58.186Z,20.22
2023-09-04T18:08:01.829Z,20.15
2023-09-04T18:11:04.660Z,19.96
2023-09-04T18:14:06.600Z,19.94
2023-09-04T18:17:08.291Z,19.85
2023-09-04T18:20:10.540Z,19.68
2023-09-04T18:23:13.385Z,19.65
2023-09-04T18:26:15.548Z,19.44
2023-09-04T18:29:17.378Z,19.43
2023-09-04T18:32:19.196Z,19.35
2023-09-04T18:35:26.401Z,19.28
2023-09-04T18:38:29.869Z,19.17
2023-09-04T18:41:31.789Z,19.04
2023-09-04T18:44:33.668Z,18.96
2023-09-04T18:47:37.911Z,18.92
2023-09-04T18:50:42.149Z,18.87
2023-09-04T18:53:44.219Z,18.77
2023-09-04T18:56:47.056Z,18.65
2023-09-04T18:59:49.788Z,18.57
2023-09-04T19:02:51.665Z,18.55
2023-09-04T19:05:53.776Z,18.51
2023-09-04T19:08:56.121Z,18.46
2023-09-04T19:11:58.180Z,18.42
2023-09-04T19:15:00.146Z,18.44
2023-09-04T19:18:02.289Z,18.39
2023-09-04T19:21:04.969Z,18.40
2023-09-04T19:24:07.210Z,18.32
2023-09-04T19:27:08.960Z,18.31
2023-09-04T19:30:11.539Z,18.19
2023-09-04T19:33:14.149Z,18.12
2023-09-04T19:36:16.101Z,18.07
2023-09-04T19:39:17.969Z,18.14
2023-09-04T19:42:20.179Z,18.20
2023-09-04T19:45:23.826Z,18.14
2023-09-04T19:48:25.904Z,18.12
2023-09-04T19:51:28.100Z,18.08
2023-09-04T19:54:30.869Z,17.94
2023-09-04T19:57:34.690Z,17.67
2023-09-04T20:00:36.651Z,17.81
2023-09-04T20:03:38.627Z,17.83
2023-09-04T20:06:40.491Z,17.82
2023-09-04T20:09:42.335Z,17.55
2023-09-04T20:12:44.101Z,17.51
2023-09-04T20:15:45.826Z,17.39
2023-09-04T20:18:47.606Z,17.36
2023-09-04T20:21:50.446Z,17.26
2023-09-04T20:24:52.281Z,17.13
2023-09-04T20:27:54.032Z,17.08
2023-09-04T20:30:56.427Z,16.74
2023-09-04T20:33:58.300Z,16.72
2023-09-04T20:37:02.142Z,16.66
2023-09-04T20:40:04.742Z,16.26
2023-09-04T20:43:06.585Z,16.44
2023-09-04T20:46:08.335Z,16.53
2023-09-04T20:49:10.189Z,16.51
2023-09-04T20:52:13.165Z,16.51
2023-09-04T20:55:14.958Z,16.60
2023-09-04T20:58:16.772Z,16.71
2023-09-04T21:01:18.703Z,16.69
2023-09-04T21:04:21.033Z,16.77
2023-09-04T21:07:22.849Z,16.88
2023-09-04T21:10:24.525Z,16.87
2023-09-04T21:13:44.874Z,16.86
2023-09-04T21:17:05.221Z,16.99
2023-09-04T21:20:25.734Z,16.93
2023-09-04T21:23:45.802Z,16.96
2023-09-04T21:27:05.721Z,16.90
2023-09-04T21:30:27.037Z,16.91
2023-09-04T21:33:47.826Z,16.89
2023-09-04T21:37:08.496Z,16.97
2023-09-04T21:40:29.191Z,17.01
2023-09-04T21:43:49.804Z,17.09
2023-09-04T21:47:10.075Z,17.09
2023-09-04T21:50:30.861Z,17.06
2023-09-04T21:53:51.260Z,17.02
2023-09-04T21:57:11.820Z,17.06
2023-09-04T22:00:31.848Z,17.09
2023-09-04T22:03:52.336Z,17.10
2023-09-04T22:07:13.126Z,17.13
2023-09-04T22:10:33.360Z,17.13
2023-09-04T22:13:53.831Z,17.08
2023-09-04T22:17:14.069Z,16.82
2023-09-04T22:20:34.590Z,16.80
2023-09-04T22:23:54.830Z,16.88
2023-09-04T22:27:17.518Z,17.01
2023-09-04T22:30:37.754Z,17.00
2023-09-04T22:33:57.876Z,16.96
2023-09-04T22:37:17.978Z,16.93
2023-09-04T22:40:38.744Z,16.93
2023-09-04T22:43:59.407Z,16.88
2023-09-04T22:47:19.611Z,16.85
2023-09-04T22:50:40.058Z,16.81
2023-09-04T22:54:00.228Z,16.77
2023-09-04T22:57:20.802Z,16.77
2023-09-04T23:00:40.961Z,16.71
2023-09-04T23:04:01.183Z,16.79
2023-09-04T23:07:21.308Z,16.75
2023-09-04T23:10:41.701Z,16.72
2023-09-04T23:14:01.996Z,16.71
2023-09-04T23:17:22.381Z,16.69
2023-09-04T23:20:42.474Z,16.66
2023-09-04T23:23:49.783Z,16.67
2023-09-04T23:26:55.901Z,16.67
2023-09-04T23:29:57.983Z,16.72
2023-09-04T23:33:02.974Z,16.73
2023-09-04T23:36:16.264Z,16.71
2023-09-04T23:39:18.266Z,16.73
2023-09-04T23:42:38.957Z,16.73
2023-09-04T23:45:40.714Z,16.72
2023-09-04T23:48:42.680Z,16.66
2023-09-04T23:51:44.653Z,16.62
2023-09-04T23:54:46.561Z,16.67
2023-09-04T23:57:48.783Z,16.58
